Time;durP1;ratioP1;P1;durP2;ratioP2;P2;SDS_P1;SDS_P2;PMS_P1;PMS_P2;Temp;Humidity;BMP_temperature;BMP_pressure;BME280_temperature;BME280_humidity;BME280_pressure;Samples;Min_cycle;Max_cycle;Signal;HPM_P1;HPM_P2
2021/12/28 00:01:29;;;;;;;;;;;;;;;-0.71;100.00;99928.19;5013702;28;19986;-70
2021/12/28 00:03:55;;;;;;;;;;;;;;;-0.72;100.00;99933.41;5008916;28;20378;-72
2021/12/28 00:06:21;;;;;;;;;;;;;;;-0.72;100.00;99929.09;5000593;28;20558;-70
2021/12/28 00:08:47;;;;;;;;;;;;;;;-0.72;100.00;99923.94;5022278;28;19921;-71
2021/12/28 00:11:13;;;;;;;;;;;;;;;-0.66;100.00;99926.16;5015043;28;20551;-71
2021/12/28 00:13:39;;;;;;;;;;;;;;;-0.73;100.00;99924.88;5021958;28;19923;-71
2021/12/28 00:18:32;;;;;;;;;;;;;;;-0.66;100.00;99915.84;5016019;28;20007;-71
2021/12/28 00:21:00;;;;;;;;;;;;;;;-0.62;100.00;99913.91;5014876;28;19939;-71
2021/12/28 00:23:30;;;;;;;;;;;;;;;-0.69;100.00;99922.94;5009324;28;19923;-71
2021/12/28 00:25:57;;;;;;;;;;;;;;;-0.67;100.00;99919.34;5015138;28;19928;-70
2021/12/28 00:28:22;;;;;;;;;;;;;;;-0.62;100.00;99917.31;5015975;28;20060;-69
2021/12/28 00:30:48;;;;;;;;;;;;;;;-0.63;100.00;99909.69;5015203;28;20012;-70
2021/12/28 00:33:14;;;;;;;;;;;;;;;-0.62;100.00;99906.19;5004887;28;19917;-71
2021/12/28 00:35:40;;;;;;;;;;;;;;;-0.71;100.00;99911.91;5000751;28;19917;-71
2021/12/28 00:38:06;;;;;;;;;;;;;;;-0.71;100.00;99910.16;5017574;28;20330;-70
2021/12/28 00:40:33;;;;;;;;;;;;;;;-0.64;100.00;99908.00;5003871;28;19917;-71
2021/12/28 00:42:59;;;;;;;;;;;;;;;-0.67;100.00;99896.16;5021040;28;19965;-71
2021/12/28 00:45:24;;;;;;;;;;;;;;;-0.63;100.00;99905.34;5008158;28;19957;-71
2021/12/28 00:47:50;;;;;;;;;;;;;;;-0.67;100.00;99903.88;5021870;28;19983;-71
2021/12/28 00:50:16;;;;;;;;;;;;;;;-0.70;100.00;99900.69;5017991;28;19913;-71
2021/12/28 00:52:42;;;;;;;;;;;;;;;-0.70;100.00;99896.34;5011661;28;19963;-71
2021/12/28 00:55:08;;;;;;;;;;;;;;;-0.62;100.00;99894.13;5019973;28;19924;-70
2021/12/28 00:57:34;;;;;;;;;;;;;;;-0.49;100.00;99893.34;5010655;28;20329;-71
2021/12/28 01:00:01;;;;;;;;;;;;;;;-0.54;100.00;99891.06;5005484;28;19975;-71
2021/12/28 01:02:26;;;;;;;;;;;;;;;-0.46;100.00;99888.84;5024233;28;19921;-70
2021/12/28 01:04:52;;;;;;;;;;;;;;;-0.57;100.00;99893.84;5033244;28;19929;-71
2021/12/28 01:07:17;;;;;;;;;;;;;;;-0.57;100.00;99880.13;5012174;28;19921;-70
2021/12/28 01:09:45;;;;;;;;;;;;;;;-0.48;100.00;99882.13;5037776;28;19917;-73
2021/12/28 01:12:11;;;;;;;;;;;;;;;-0.45;100.00;99879.38;5031400;28;20043;-71
2021/12/28 01:14:37;;;;;;;;;;;;;;;-0.51;100.00;99877.16;5019688;28;19949;-71
2021/12/28 01:17:03;;;;;;;;;;;;;;;-0.42;100.00;99879.16;5000526;28;19919;-71
2021/12/28 01:19:29;;;;;;;;;;;;;;;-0.45;100.00;99882.78;5011080;28;20367;-70
2021/12/28 01:21:54;;;;;;;;;;;;;;;-0.46;100.00;99885.44;5007676;28;19917;-70
2021/12/28 01:24:20;;;;;;;;;;;;;;;-0.41;100.00;99880.84;5011482;28;19920;-71
2021/12/28 01:26:46;;;;;;;;;;;;;;;-0.42;100.00;99876.59;5008802;28;19924;-71
2021/12/28 01:29:11;;;;;;;;;;;;;;;-0.45;100.00;99879.38;5018047;28;19965;-71
2021/12/28 01:31:37;;;;;;;;;;;;;;;-0.46;100.00;99872.56;5014975;28;19917;-70
2021/12/28 01:34:07;;;;;;;;;;;;;;;-0.54;100.00;99867.06;5029588;28;19917;-71
2021/12/28 01:36:35;;;;;;;;;;;;;;;-0.56;100.00;99874.06;5027607;28;19959;-72
2021/12/28 01:39:04;;;;;;;;;;;;;;;-0.66;100.00;99866.06;5017872;28;20366;-71
2021/12/28 01:41:29;;;;;;;;;;;;;;;-0.65;100.00;99872.91;5025909;28;19917;-70
2021/12/28 01:43:55;;;;;;;;;;;;;;;-0.65;100.00;99878.03;5030787;28;20305;-71
2021/12/28 01:46:21;;;;;;;;;;;;;;;-0.71;100.00;99868.13;5006163;28;20028;-72
2021/12/28 01:48:47;;;;;;;;;;;;;;;-0.62;100.00;99865.81;5007826;28;20463;-71
2021/12/28 01:51:20;;;;;;;;;;;;;;;-0.63;100.00;99863.31;5007828;28;20559;-71
2021/12/28 01:53:46;;;;;;;;;;;;;;;-0.55;100.00;99860.25;5007927;28;20352;-70
2021/12/28 01:56:13;;;;;;;;;;;;;;;-0.59;100.00;99851.88;5022303;28;20677;-71
2021/12/28 01:58:40;;;;;;;;;;;;;;;-0.57;100.00;99846.66;5039479;28;19917;-71
2021/12/28 02:01:06;;;;;;;;;;;;;;;-0.53;100.00;99848.09;4995215;28;19924;-71
2021/12/28 02:03:32;;;;;;;;;;;;;;;-0.53;100.00;99842.94;5013218;28;19921;-70
2021/12/28 02:05:57;;;;;;;;;;;;;;;-0.50;100.00;99837.63;5016113;28;20310;-70
2021/12/28 02:08:23;;;;;;;;;;;;;;;-0.49;100.00;99834.94;5025228;28;19917;-71
2021/12/28 02:10:51;;;;;;;;;;;;;;;-0.54;100.00;99836.16;5003902;28;20397;-71
2021/12/28 02:13:17;;;;;;;;;;;;;;;-0.40;100.00;99826.63;5013826;28;19928;-71
2021/12/28 02:15:43;;;;;;;;;;;;;;;-0.42;100.00;99836.19;5026734;28;19944;-71
2021/12/28 02:18:11;;;;;;;;;;;;;;;-0.37;100.00;99825.59;5023169;28;19971;-71
2021/12/28 02:20:37;;;;;;;;;;;;;;;-0.44;100.00;99820.00;4997679;28;19921;-70
2021/12/28 02:23:03;;;;;;;;;;;;;;;-0.40;100.00;99811.16;4994268;28;20556;-70
2021/12/28 02:25:32;;;;;;;;;;;;;;;-0.49;100.00;99810.91;5007942;28;19925;-72
2021/12/28 02:27:59;;;;;;;;;;;;;;;-0.52;100.00;99817.09;5007415;28;20302;-70
2021/12/28 02:30:25;;;;;;;;;;;;;;;-0.49;100.00;99822.06;5007817;28;19956;-71
2021/12/28 02:32:51;;;;;;;;;;;;;;;-0.49;100.00;99806.59;5014930;28;20835;-71
2021/12/28 02:35:18;;;;;;;;;;;;;;;-0.41;100.00;99808.69;5020786;28;19932;-70
2021/12/28 02:37:44;;;;;;;;;;;;;;;-0.48;100.00;99794.53;5022475;28;19924;-70
2021/12/28 02:40:12;;;;;;;;;;;;;;;-0.43;100.00;99795.06;5019638;28;20086;-71
2021/12/28 02:42:37;;;;;;;;;;;;;;;-0.49;100.00;99788.56;5021671;28;20004;-71
2021/12/28 02:45:10;;;;;;;;;;;;;;;-0.51;100.00;99790.41;5021745;28;19920;-70
2021/12/28 02:47:41;;;;;;;;;;;;;;;-0.45;100.00;99794.34;5015629;28;20596;-70
2021/12/28 02:50:08;;;;;;;;;;;;;;;-0.48;100.00;99799.69;5016815;28;19925;-71
2021/12/28 02:52:34;;;;;;;;;;;;;;;-0.44;100.00;99798.56;5015577;28;19921;-71
2021/12/28 02:55:00;;;;;;;;;;;;;;;-0.41;100.00;99803.53;5007560;28;19920;-70
2021/12/28 02:57:25;;;;;;;;;;;;;;;-0.42;100.00;99801.88;5017593;28;19917;-71
2021/12/28 02:59:51;;;;;;;;;;;;;;;-0.43;100.00;99795.91;4997096;28;20028;-71
2021/12/28 03:02:17;;;;;;;;;;;;;;;-0.37;100.00;99799.00;5004624;28;19927;-71
2021/12/28 03:04:42;;;;;;;;;;;;;;;-0.47;100.00;99802.19;5000739;28;20015;-71
2021/12/28 03:07:08;;;;;;;;;;;;;;;-0.39;100.00;99801.69;5006358;28;19925;-71
2021/12/28 03:09:34;;;;;;;;;;;;;;;-0.41;100.00;99803.53;5011870;28;19916;-71
2021/12/28 03:12:00;;;;;;;;;;;;;;;-0.38;100.00;99802.50;5032970;28;19995;-70
2021/12/28 03:14:25;;;;;;;;;;;;;;;-0.34;100.00;99798.78;5020869;28;20378;-71
2021/12/28 03:16:50;;;;;;;;;;;;;;;-0.36;100.00;99800.66;5022938;28;19924;-70
2021/12/28 03:19:16;;;;;;;;;;;;;;;-0.46;100.00;99801.22;5000047;28;19928;-71
2021/12/28 03:21:41;;;;;;;;;;;;;;;-0.47;100.00;99793.59;5023099;28;19921;-70
2021/12/28 03:24:08;;;;;;;;;;;;;;;-0.45;100.00;99794.34;5011523;28;19929;-72
2021/12/28 03:26:34;;;;;;;;;;;;;;;-0.44;100.00;99801.16;4983101;28;19937;-71
2021/12/28 03:28:59;;;;;;;;;;;;;;;-0.46;100.00;99796.09;4990085;28;19913;-71
2021/12/28 03:31:25;;;;;;;;;;;;;;;-0.45;100.00;99784.88;5024458;28;19917;-71
2021/12/28 03:33:51;;;;;;;;;;;;;;;-0.43;100.00;99784.78;5009150;28;19917;-71
2021/12/28 03:36:17;;;;;;;;;;;;;;;-0.43;100.00;99772.72;5007068;28;19925;-70
2021/12/28 03:38:43;;;;;;;;;;;;;;;-0.43;100.00;99759.81;5022415;28;20678;-71
2021/12/28 03:41:09;;;;;;;;;;;;;;;-0.40;100.00;99763.94;5026078;28;19948;-72
2021/12/28 03:43:36;;;;;;;;;;;;;;;-0.37;100.00;99760.34;5008556;28;19952;-71
2021/12/28 03:46:02;;;;;;;;;;;;;;;-0.42;100.00;99756.31;5018820;28;20004;-72
2021/12/28 03:48:27;;;;;;;;;;;;;;;-0.52;100.00;99754.44;5024872;28;20019;-71
2021/12/28 03:50:53;;;;;;;;;;;;;;;-0.51;100.00;99746.63;5028073;28;21591;-71
2021/12/28 03:53:18;;;;;;;;;;;;;;;-0.56;100.00;99742.69;5007178;28;19917;-70
2021/12/28 03:55:43;;;;;;;;;;;;;;;-0.50;100.00;99734.56;5000091;28;20433;-70
2021/12/28 03:58:09;;;;;;;;;;;;;;;-0.50;100.00;99727.66;5016445;28;19917;-71
2021/12/28 04:00:42;;;;;;;;;;;;;;;-0.51;100.00;99720.03;5004583;28;19913;-71
2021/12/28 04:03:08;;;;;;;;;;;;;;;-0.52;100.00;99721.78;5024445;28;19917;-70
2021/12/28 04:05:33;;;;;;;;;;;;;;;-0.52;100.00;99724.34;5017128;28;19925;-71
2021/12/28 04:07:59;;;;;;;;;;;;;;;-0.55;100.00;99711.66;5003357;28;20358;-71
2021/12/28 04:10:31;;;;;;;;;;;;;;;-0.49;100.00;99708.72;5026991;28;20457;-71
2021/12/28 04:12:57;;;;;;;;;;;;;;;-0.41;100.00;99706.44;5024708;28;19913;-71
2021/12/28 04:15:22;;;;;;;;;;;;;;;-0.50;100.00;99703.66;5010980;28;19921;-71
2021/12/28 04:17:48;;;;;;;;;;;;;;;-0.49;100.00;99711.28;5021348;28;20011;-71
2021/12/28 04:20:15;;;;;;;;;;;;;;;-0.55;100.00;99721.16;4997759;28;19916;-72
2021/12/28 04:22:41;;;;;;;;;;;;;;;-0.55;100.00;99732.28;5019908;28;20009;-70
2021/12/28 04:25:07;;;;;;;;;;;;;;;-0.51;100.00;99731.16;5018064;28;19983;-71
2021/12/28 04:27:33;;;;;;;;;;;;;;;-0.51;100.00;99720.88;5024150;28;19920;-71
2021/12/28 04:29:59;;;;;;;;;;;;;;;-0.54;100.00;99718.47;5047780;28;19923;-70
2021/12/28 04:32:24;;;;;;;;;;;;;;;-0.48;100.00;99720.66;5021757;28;19917;-71
2021/12/28 04:34:50;;;;;;;;;;;;;;;-0.50;100.00;99709.63;4998617;28;19920;-70
2021/12/28 04:37:15;;;;;;;;;;;;;;;-0.55;100.00;99719.38;5028146;28;19917;-70
2021/12/28 04:39:41;;;;;;;;;;;;;;;-0.58;100.00;99714.47;4995041;28;20047;-72
2021/12/28 04:42:06;;;;;;;;;;;;;;;-0.46;100.00;99705.91;5012316;28;20024;-71
2021/12/28 04:44:32;;;;;;;;;;;;;;;-0.57;100.00;99704.97;5009023;28;19917;-70
2021/12/28 04:46:58;;;;;;;;;;;;;;;-0.59;100.00;99695.59;5008473;28;19917;-71
2021/12/28 04:49:26;;;;;;;;;;;;;;;-0.63;100.00;99688.16;5000173;28;19913;-70
2021/12/28 04:51:51;;;;;;;;;;;;;;;-0.62;100.00;99688.06;5004874;28;19931;-71
2021/12/28 04:54:18;;;;;;;;;;;;;;;-0.53;100.00;99688.38;5029320;28;19920;-71
2021/12/28 04:56:44;;;;;;;;;;;;;;;-0.50;100.00;99681.28;4990581;28;20390;-71
2021/12/28 04:59:09;;;;;;;;;;;;;;;-0.48;100.00;99683.75;5009400;28;19970;-71
2021/12/28 05:01:37;;;;;;;;;;;;;;;-0.35;100.00;99679.44;5036345;28;19940;-70
2021/12/28 05:04:03;;;;;;;;;;;;;;;-0.50;100.00;99681.28;5013890;28;19917;-71
2021/12/28 05:06:29;;;;;;;;;;;;;;;-0.47;100.00;99681.09;5024214;28;19941;-70
2021/12/28 05:08:54;;;;;;;;;;;;;;;-0.52;100.00;99685.72;5027370;28;19925;-71
2021/12/28 05:11:20;;;;;;;;;;;;;;;-0.51;100.00;99682.22;5028533;28;19917;-71
2021/12/28 05:13:46;;;;;;;;;;;;;;;-0.45;100.00;99689.53;5018605;28;19978;-71
2021/12/28 05:16:14;;;;;;;;;;;;;;;-0.34;100.00;99677.69;5008208;28;20377;-72
2021/12/28 05:18:40;;;;;;;;;;;;;;;-0.35;100.00;99676.03;5024012;28;19917;-70
2021/12/28 05:21:05;;;;;;;;;;;;;;;-0.36;100.00;99670.03;5025064;28;21372;-71
2021/12/28 05:23:31;;;;;;;;;;;;;;;-0.29;100.00;99667.91;5013927;28;19917;-70
2021/12/28 05:25:56;;;;;;;;;;;;;;;-0.32;100.00;99660.34;5022556;28;20584;-72
2021/12/28 05:28:22;;;;;;;;;;;;;;;-0.32;100.00;99665.50;5014058;28;19984;-71
2021/12/28 05:30:47;;;;;;;;;;;;;;;-0.35;100.00;99663.16;5013834;28;20448;-71
2021/12/28 05:33:13;;;;;;;;;;;;;;;-0.32;100.00;99665.50;5019947;28;19917;-71
2021/12/28 05:35:38;;;;;;;;;;;;;;;-0.29;100.00;99666.13;5030759;28;19978;-70
2021/12/28 05:38:03;;;;;;;;;;;;;;;-0.29;100.00;99665.31;5031138;28;19923;-71
2021/12/28 05:40:29;;;;;;;;;;;;;;;-0.24;100.00;99663.25;5033967;28;19920;-70
2021/12/28 05:42:55;;;;;;;;;;;;;;;-0.24;100.00;99664.06;5011081;28;19924;-71
2021/12/28 05:45:20;;;;;;;;;;;;;;;-0.26;100.00;99658.22;5022765;28;20008;-70
2021/12/28 05:47:46;;;;;;;;;;;;;;;-0.12;100.00;99659.03;5008188;28;19917;-71
2021/12/28 05:50:12;;;;;;;;;;;;;;;-0.14;100.00;99656.53;5024263;28;19921;-70
2021/12/28 05:52:37;;;;;;;;;;;;;;;-0.22;100.00;99657.06;5025003;28;19920;-71
2021/12/28 05:55:03;;;;;;;;;;;;;;;-0.16;100.00;99649.84;5023853;28;19921;-73
2021/12/28 05:57:30;;;;;;;;;;;;;;;-0.15;100.00;99657.50;5015629;28;19917;-71
2021/12/28 05:59:56;;;;;;;;;;;;;;;-0.14;100.00;99658.31;4972565;28;20023;-71
2021/12/28 06:02:21;;;;;;;;;;;;;;;-0.20;100.00;99655.19;5007817;28;20007;-71
2021/12/28 06:04:47;;;;;;;;;;;;;;;-0.21;100.00;99656.16;5024065;28;20019;-71
2021/12/28 06:07:13;;;;;;;;;;;;;;;-0.14;100.00;99651.38;5000043;28;20575;-73
2021/12/28 06:09:38;;;;;;;;;;;;;;;-0.15;100.00;99657.50;5034118;28;20281;-71
2021/12/28 06:12:06;;;;;;;;;;;;;;;-0.20;100.00;99649.22;5033459;28;20309;-72
2021/12/28 06:14:32;;;;;;;;;;;;;;;-0.20;100.00;99647.47;5014580;28;19967;-72
2021/12/28 06:16:57;;;;;;;;;;;;;;;-0.22;100.00;99656.25;5024461;28;19921;-71
2021/12/28 06:19:23;;;;;;;;;;;;;;;-0.28;100.00;99659.25;5006871;28;20274;-71
2021/12/28 06:21:49;;;;;;;;;;;;;;;-0.22;100.00;99662.22;5011409;28;20024;-71
2021/12/28 06:24:14;;;;;;;;;;;;;;;-0.23;100.00;99663.16;5025346;28;19917;-72
2021/12/28 06:26:40;;;;;;;;;;;;;;;-0.18;100.00;99662.84;5033194;28;19917;-72
2021/12/28 06:29:06;;;;;;;;;;;;;;;-0.27;100.00;99664.28;5015277;28;19916;-72
2021/12/28 06:31:32;;;;;;;;;;;;;;;-0.23;100.00;99660.59;4999866;28;19923;-72
2021/12/28 06:33:59;;;;;;;;;;;;;;;-0.26;100.00;99665.13;5016744;28;19917;-71
2021/12/28 06:36:25;;;;;;;;;;;;;;;-0.31;100.00;99662.84;4981436;28;19917;-72
2021/12/28 06:38:51;;;;;;;;;;;;;;;-0.38;100.00;99669.31;5015317;28;20346;-72
2021/12/28 06:41:16;;;;;;;;;;;;;;;-0.20;100.00;99672.44;5023605;28;19917;-72
2021/12/28 06:43:42;;;;;;;;;;;;;;;-0.26;100.00;99665.94;5026379;28;19960;-72
2021/12/28 06:46:08;;;;;;;;;;;;;;;-0.23;100.00;99650.28;5012505;28;19925;-71
2021/12/28 06:48:34;;;;;;;;;;;;;;;-0.24;100.00;99651.19;5013367;28;20025;-72
2021/12/28 06:50:59;;;;;;;;;;;;;;;-0.30;100.00;99649.03;5023670;28;19962;-72
2021/12/28 06:53:25;;;;;;;;;;;;;;;-0.30;100.00;99648.19;4993974;28;19917;-71
2021/12/28 06:55:50;;;;;;;;;;;;;;;-0.36;100.00;99644.28;5002687;28;20051;-71
2021/12/28 06:58:16;;;;;;;;;;;;;;;-0.30;100.00;99636.16;5001767;28;20434;-72
2021/12/28 07:00:42;;;;;;;;;;;;;;;-0.38;100.00;99633.25;5017775;28;19941;-71
2021/12/28 07:03:07;;;;;;;;;;;;;;;-0.39;100.00;99634.19;5018308;28;20393;-71
2021/12/28 07:05:33;;;;;;;;;;;;;;;-0.38;100.00;99640.16;5000893;28;19924;-72
2021/12/28 07:07:59;;;;;;;;;;;;;;;-0.38;100.00;99627.28;5019480;28;19913;-73
2021/12/28 07:10:24;;;;;;;;;;;;;;;-0.33;100.00;99625.22;5028040;28;19917;-73
2021/12/28 07:12:50;;;;;;;;;;;;;;;-0.34;100.00;99623.56;5013003;28;19913;-72
2021/12/28 07:15:19;;;;;;;;;;;;;;;-0.30;100.00;99617.28;4996955;28;19923;-72
2021/12/28 07:17:45;;;;;;;;;;;;;;;-0.34;100.00;99624.41;5025812;28;20382;-71
2021/12/28 07:20:11;;;;;;;;;;;;;;;-0.28;100.00;99621.41;4999039;28;19924;-71
2021/12/28 07:22:37;;;;;;;;;;;;;;;-0.30;100.00;99617.28;5033572;28;19998;-71
2021/12/28 07:25:03;;;;;;;;;;;;;;;-0.31;100.00;99615.63;5021628;28;19924;-72
2021/12/28 07:27:28;;;;;;;;;;;;;;;-0.33;100.00;99615.75;5016440;28;20392;-72
2021/12/28 07:29:54;;;;;;;;;;;;;;;-0.35;100.00;99615.03;5027949;28;19975;-73
2021/12/28 07:32:20;;;;;;;;;;;;;;;-0.30;100.00;99612.97;5022680;28;19913;-71
2021/12/28 07:34:45;;;;;;;;;;;;;;;-0.29;100.00;99618.94;5018412;28;20011;-71
2021/12/28 07:37:11;;;;;;;;;;;;;;;-0.33;100.00;99612.34;5019820;28;20043;-71
2021/12/28 07:39:37;;;;;;;;;;;;;;;-0.26;100.00;99614.41;5023217;28;20023;-71
2021/12/28 07:42:03;;;;;;;;;;;;;;;-0.39;100.00;99611.00;5026012;28;20003;-71
2021/12/28 07:44:29;;;;;;;;;;;;;;;-0.30;100.00;99610.38;5033290;28;19975;-71
2021/12/28 07:46:54;;;;;;;;;;;;;;;-0.29;100.00;99624.09;5016193;28;19924;-71
2021/12/28 07:49:20;;;;;;;;;;;;;;;-0.29;100.00;99613.78;5008870;28;19913;-71
2021/12/28 07:51:46;;;;;;;;;;;;;;;-0.30;100.00;99618.13;5003853;28;19924;-72
2021/12/28 07:54:12;;;;;;;;;;;;;;;-0.33;100.00;99610.59;5024249;28;19920;-72
2021/12/28 07:56:37;;;;;;;;;;;;;;;-0.32;100.00;99608.81;5016828;28;20008;-71
2021/12/28 07:59:03;;;;;;;;;;;;;;;-0.24;100.00;99606.56;5022911;28;19917;-71
2021/12/28 08:01:30;;;;;;;;;;;;;;;-0.25;100.00;99605.72;5035677;28;19999;-71
2021/12/28 08:03:56;;;;;;;;;;;;;;;-0.23;100.00;99610.78;5003697;28;19917;-72
2021/12/28 08:06:21;;;;;;;;;;;;;;;-0.30;100.00;99602.66;5010393;28;19917;-71
2021/12/28 08:08:47;;;;;;;;;;;;;;;-0.33;100.00;99609.78;5019319;28;19924;-72
2021/12/28 08:11:12;;;;;;;;;;;;;;;-0.31;100.00;99606.16;5023850;28;19927;-72
2021/12/28 08:13:38;;;;;;;;;;;;;;;-0.31;100.00;99602.75;5023650;28;19935;-71
2021/12/28 08:16:03;;;;;;;;;;;;;;;-0.34;100.00;99613.25;5005851;28;19917;-71
2021/12/28 08:18:29;;;;;;;;;;;;;;;-0.31;100.00;99610.47;5044329;28;20370;-71
2021/12/28 08:20:54;;;;;;;;;;;;;;;-0.30;100.00;99606.97;5017511;28;19921;-71
2021/12/28 08:23:20;;;;;;;;;;;;;;;-0.29;100.00;99609.44;5010938;28;19917;-71
2021/12/28 08:25:45;;;;;;;;;;;;;;;-0.34;100.00;99598.66;5011886;28;20012;-73
2021/12/28 08:28:11;;;;;;;;;;;;;;;-0.25;100.00;99590.25;5025890;28;19920;-72
2021/12/28 08:30:38;;;;;;;;;;;;;;;-0.26;100.00;99595.53;5023548;28;20158;-71
2021/12/28 08:33:05;;;;;;;;;;;;;;;-0.24;100.00;99591.91;5016608;28;20373;-72
2021/12/28 08:35:30;;;;;;;;;;;;;;;-0.24;100.00;99589.34;5014648;28;19913;-71
2021/12/28 08:37:56;;;;;;;;;;;;;;;-0.25;100.00;99586.88;5013479;28;19917;-72
2021/12/28 08:40:22;;;;;;;;;;;;;;;-0.18;100.00;99582.94;5017739;28;20006;-70
2021/12/28 08:42:47;;;;;;;;;;;;;;;-0.30;100.00;99583.78;5031886;28;19921;-71
2021/12/28 08:45:13;;;;;;;;;;;;;;;-0.33;100.00;99589.97;4994959;28;19921;-72
2021/12/28 08:47:38;;;;;;;;;;;;;;;-0.23;100.00;99579.84;5019053;28;19917;-73
2021/12/28 08:50:07;;;;;;;;;;;;;;;-0.22;100.00;99589.25;5001189;28;19916;-71
2021/12/28 08:52:32;;;;;;;;;;;;;;;-0.33;100.00;99586.56;5028106;28;20646;-71
2021/12/28 08:54:58;;;;;;;;;;;;;;;-0.27;100.00;99586.16;5015672;28;19966;-71
2021/12/28 08:57:23;;;;;;;;;;;;;;;-0.30;100.00;99586.34;5023344;28;19920;-71
2021/12/28 08:59:49;;;;;;;;;;;;;;;-0.34;100.00;99592.66;5024219;28;19995;-71
2021/12/28 09:02:15;;;;;;;;;;;;;;;-0.25;100.00;99579.94;4998166;28;19913;-71
2021/12/28 09:04:43;;;;;;;;;;;;;;;-0.30;100.00;99581.19;5011678;28;20625;-72
2021/12/28 09:07:16;;;;;;;;;;;;;;;-0.34;100.00;99577.19;4987179;28;19924;-74
2021/12/28 09:09:42;;;;;;;;;;;;;;;-0.37;100.00;99569.69;5023885;28;20347;-72
2021/12/28 09:12:08;;;;;;;;;;;;;;;-0.31;100.00;99575.22;5026084;28;19925;-72
2021/12/28 09:14:34;;;;;;;;;;;;;;;-0.27;100.00;99566.34;4997060;28;19921;-72
2021/12/28 09:16:59;;;;;;;;;;;;;;;-0.29;100.00;99570.78;5016199;28;19913;-73
2021/12/28 09:19:25;;;;;;;;;;;;;;;-0.29;100.00;99562.25;5019329;28;20313;-73
2021/12/28 09:21:50;;;;;;;;;;;;;;;-0.25;100.00;99564.47;5019163;28;19917;-72
2021/12/28 09:24:16;;;;;;;;;;;;;;;-0.25;100.00;99572.22;5000512;28;19924;-73
2021/12/28 09:26:41;;;;;;;;;;;;;;;-0.27;100.00;99573.25;5012370;28;20029;-72
2021/12/28 09:29:07;;;;;;;;;;;;;;;-0.24;100.00;99571.31;5015356;28;20425;-71
2021/12/28 09:31:33;;;;;;;;;;;;;;;-0.26;100.00;99572.34;5022044;28;19913;-71
2021/12/28 09:33:59;;;;;;;;;;;;;;;-0.16;100.00;99564.78;5027231;28;19924;-72
2021/12/28 09:36:25;;;;;;;;;;;;;;;-0.18;100.00;99558.94;5006830;28;19917;-72
2021/12/28 09:38:51;;;;;;;;;;;;;;;-0.18;100.00;99548.63;4987968;28;19925;-75
2021/12/28 09:41:17;;;;;;;;;;;;;;;-0.15;100.00;99549.22;5004665;28;19917;-74
2021/12/28 09:43:43;;;;;;;;;;;;;;;-0.20;100.00;99552.13;5027688;28;19917;-73
2021/12/28 09:46:09;;;;;;;;;;;;;;;-0.17;100.00;99552.81;5021482;28;19924;-73
2021/12/28 09:48:35;;;;;;;;;;;;;;;-0.18;100.00;99546.03;5046174;28;19917;-71
2021/12/28 09:51:00;;;;;;;;;;;;;;;-0.11;100.00;99544.69;5014940;28;19921;-73
2021/12/28 09:53:26;;;;;;;;;;;;;;;-0.12;100.00;99537.88;5019950;28;19912;-73
2021/12/28 09:55:52;;;;;;;;;;;;;;;-0.04;100.00;99539.00;5018913;28;19979;-72
2021/12/28 09:58:18;;;;;;;;;;;;;;;-0.02;100.00;99542.28;5005498;28;20719;-73
2021/12/28 10:00:43;;;;;;;;;;;;;;;0.02;100.00;99535.16;5018735;28;19971;-74
2021/12/28 10:03:09;;;;;;;;;;;;;;;-0.09;100.00;99533.31;5024212;28;20655;-72
2021/12/28 10:05:34;;;;;;;;;;;;;;;-0.11;100.00;99536.94;5017439;28;20572;-74
2021/12/28 10:08:01;;;;;;;;;;;;;;;-0.21;100.00;99529.00;5024978;28;20715;-74
2021/12/28 10:10:27;;;;;;;;;;;;;;;-0.07;100.00;99530.66;5033338;28;19952;-74
2021/12/28 10:12:57;;;;;;;;;;;;;;;-0.05;100.00;99526.19;5029116;28;19924;-71
2021/12/28 10:15:25;;;;;;;;;;;;;;;-0.05;100.00;99523.63;5007534;28;19917;-73
2021/12/28 10:17:52;;;;;;;;;;;;;;;-0.04;100.00;99520.09;5024189;28;19921;-72
2021/12/28 10:20:19;;;;;;;;;;;;;;;0.01;100.00;99519.78;4994757;28;19928;-72
2021/12/28 10:22:52;;;;;;;;;;;;;;;0.02;100.00;99517.09;5024782;28;20290;-73
2021/12/28 10:25:26;;;;;;;;;;;;;;;0.10;100.00;99514.78;5005108;28;19925;-72
2021/12/28 10:27:53;;;;;;;;;;;;;;;0.13;100.00;99504.28;5002513;28;19925;-73
2021/12/28 10:30:42;;;;;;;;;;;;;;;0.06;100.00;99497.06;4999325;28;19917;-71
2021/12/28 10:33:09;;;;;;;;;;;;;;;0.01;100.00;99502.56;5010144;28;19921;-71
2021/12/28 10:35:36;;;;;;;;;;;;;;;-0.02;100.00;99492.44;5012178;28;19917;-72
2021/12/28 10:38:04;;;;;;;;;;;;;;;0.01;100.00;99491.44;4994974;28;19917;-70
2021/12/28 10:40:29;;;;;;;;;;;;;;;0.04;100.00;99493.78;5012999;28;19953;-70
2021/12/28 10:43:01;;;;;;;;;;;;;;;0.05;100.00;99496.25;5022569;28;19967;-73
2021/12/28 10:45:28;;;;;;;;;;;;;;;0.02;100.00;99493.06;5014650;28;19923;-75
2021/12/28 10:47:55;;;;;;;;;;;;;;;0.09;100.00;99474.47;5024592;28;19964;-71
2021/12/28 10:50:26;;;;;;;;;;;;;;;0.19;100.00;99484.97;5016582;28;19913;-73
2021/12/28 10:53:06;;;;;;;;;;;;;;;0.16;100.00;99485.97;4995607;28;20393;-74
2021/12/28 10:55:33;;;;;;;;;;;;;;;0.24;100.00;99489.78;5018180;28;19913;-74
2021/12/28 10:57:58;;;;;;;;;;;;;;;0.14;100.00;99479.31;5007420;28;20378;-73
2021/12/28 11:00:25;;;;;;;;;;;;;;;0.12;100.00;99483.75;4987704;28;19921;-73
2021/12/28 11:03:10;;;;;;;;;;;;;;;0.13;100.00;99481.06;5019511;28;19967;-73
2021/12/28 11:05:35;;;;;;;;;;;;;;;0.19;100.00;99477.22;5017417;28;19926;-73
2021/12/28 11:08:01;;;;;;;;;;;;;;;0.09;100.00;99469.31;5015893;28;19924;-70
2021/12/28 11:10:28;;;;;;;;;;;;;;;0.09;100.00;99464.16;5019378;28;19924;-72
2021/12/28 11:12:54;;;;;;;;;;;;;;;0.01;100.00;99458.72;5009577;28;19916;-73
2021/12/28 11:15:21;;;;;;;;;;;;;;;0.08;100.00;99452.19;5012925;28;19925;-73
2021/12/28 11:17:47;;;;;;;;;;;;;;;0.11;100.00;99443.41;5018466;28;19932;-70
2021/12/28 11:20:12;;;;;;;;;;;;;;;0.11;100.00;99439.06;5028332;28;19940;-75
2021/12/28 11:22:38;;;;;;;;;;;;;;;0.13;100.00;99439.81;5015042;28;20294;-74
2021/12/28 11:25:16;;;;;;;;;;;;;;;0.12;100.00;99433.00;5013737;28;19927;-72
2021/12/28 11:27:41;;;;;;;;;;;;;;;0.16;100.00;99428.44;5014050;28;20318;-71
2021/12/28 11:30:14;;;;;;;;;;;;;;;0.21;100.00;99428.94;4986254;28;19917;-73
2021/12/28 11:32:39;;;;;;;;;;;;;;;0.21;100.00;99415.19;5022446;28;19924;-70
2021/12/28 11:35:06;;;;;;;;;;;;;;;0.25;100.00;99421.78;5024922;28;19920;-74
2021/12/28 11:37:32;;;;;;;;;;;;;;;0.27;100.00;99413.00;5016929;28;19917;-72
2021/12/28 11:40:00;;;;;;;;;;;;;;;0.39;100.00;99399.16;5017280;28;20543;-74
2021/12/28 11:42:26;;;;;;;;;;;;;;;0.43;100.00;99397.19;5028684;28;20015;-72
2021/12/28 11:44:52;;;;;;;;;;;;;;;0.44;100.00;99395.44;5008418;28;19945;-73
2021/12/28 11:47:18;;;;;;;;;;;;;;;0.37;100.00;99403.63;4996829;28;19924;-74
2021/12/28 11:49:46;;;;;;;;;;;;;;;0.39;100.00;99398.34;5006370;28;19924;-73
2021/12/28 11:52:14;;;;;;;;;;;;;;;0.37;100.00;99393.31;5008243;28;20297;-73
2021/12/28 11:54:44;;;;;;;;;;;;;;;0.43;100.00;99384.28;5018261;28;19959;-73
2021/12/28 11:57:12;;;;;;;;;;;;;;;0.45;100.00;99387.56;5005632;28;20063;-74
2021/12/28 11:59:39;;;;;;;;;;;;;;;0.47;100.00;99382.31;5024690;28;20386;-72
2021/12/28 12:02:06;;;;;;;;;;;;;;;0.45;100.00;99382.41;5015241;28;19918;-73
2021/12/28 12:04:34;;;;;;;;;;;;;;;0.42;100.00;99387.81;5028339;28;19983;-73
2021/12/28 12:07:09;;;;;;;;;;;;;;;0.42;100.00;99387.00;5002505;28;19925;-74
2021/12/28 12:09:50;;;;;;;;;;;;;;;0.38;100.00;99386.41;5004347;28;19916;-73
2021/12/28 12:12:29;;;;;;;;;;;;;;;0.48;100.00;99379.63;4995430;28;19918;-74
2021/12/28 12:14:56;;;;;;;;;;;;;;;0.56;100.00;99384.19;5009047;28;19917;-74
2021/12/28 12:17:22;;;;;;;;;;;;;;;0.49;100.00;99373.53;5020329;28;19999;-74
2021/12/28 12:19:48;;;;;;;;;;;;;;;0.51;100.00;99365.66;5001139;28;19924;-74
2021/12/28 12:22:29;;;;;;;;;;;;;;;0.49;100.00;99368.38;5006259;28;19923;-72
2021/12/28 12:24:55;;;;;;;;;;;;;;;0.52;100.00;99360.38;5018038;28;19921;-73
2021/12/28 12:27:40;;;;;;;;;;;;;;;0.55;100.00;99361.94;5010874;28;19913;-73
2021/12/28 12:30:18;;;;;;;;;;;;;;;0.53;100.00;99356.06;5004919;28;19913;-73
2021/12/28 12:33:00;;;;;;;;;;;;;;;0.57;100.00;99360.06;5000492;28;20008;-72
2021/12/28 12:35:30;;;;;;;;;;;;;;;0.61;100.00;99360.63;5014969;28;19917;-74
2021/12/28 12:37:55;;;;;;;;;;;;;;;0.51;100.00;99348.44;5023753;28;20051;-72